createdAt,value
2023-05-24T00:01:59.364Z,95845.47
2023-05-24T00:04:30.467Z,95843.94
2023-05-24T00:06:58.554Z,95843.58
2023-05-24T00:09:26.571Z,95846.79
2023-05-24T00:11:54.512Z,95844.16
2023-05-24T00:14:23.192Z,95845.08
2023-05-24T00:16:51.357Z,95840.27
2023-05-24T00:19:22.577Z,95840.66
2023-05-24T00:21:50.799Z,95840.66
2023-05-24T00:24:19.125Z,95835.51
2023-05-24T00:26:48.463Z,95835.98
2023-05-24T00:29:16.438Z,95839.02
2023-05-24T00:31:44.416Z,95841.09
2023-05-24T00:34:12.500Z,95843.12
2023-05-24T00:36:40.720Z,95839.91
2023-05-24T00:39:10.208Z,95840.20
2023-05-24T00:41:38.173Z,95838.33
2023-05-24T00:44:06.272Z,95836.49
2023-05-24T00:46:35.235Z,95836.23
2023-05-24T00:49:04.195Z,95835.52
2023-05-24T00:51:34.048Z,95837.67
2023-05-24T00:54:02.692Z,95836.39
2023-05-24T00:56:31.618Z,95835.55
2023-05-24T00:59:00.335Z,95833.73
2023-05-24T01:01:31.166Z,95836.20
2023-05-24T01:04:00.516Z,95838.52
2023-05-24T01:06:30.897Z,95837.11
2023-05-24T01:09:11.849Z,95840.99
2023-05-24T01:12:00.071Z,95841.58
2023-05-24T01:14:42.304Z,95843.32
2023-05-24T01:17:24.493Z,95845.67
2023-05-24T01:20:02.377Z,95845.58
2023-05-24T01:23:05.235Z,95847.43
2023-05-24T01:25:54.783Z,95848.66
2023-05-24T01:28:24.718Z,95849.36
2023-05-24T01:30:56.018Z,95850.84
2023-05-24T01:33:25.876Z,95851.48
2023-05-24T01:35:53.832Z,95851.55
2023-05-24T01:38:21.798Z,95849.88
2023-05-24T01:40:58.023Z,95851.19
2023-05-24T01:43:38.001Z,95855.09
2023-05-24T01:46:23.314Z,95852.14
2023-05-24T01:49:03.647Z,95854.51
2023-05-24T01:51:40.645Z,95854.40
2023-05-24T01:54:10.110Z,95853.36
2023-05-24T01:56:39.212Z,95857.03
2023-05-24T01:59:07.396Z,95855.25
2023-05-24T02:01:36.579Z,95859.98
2023-05-24T02:04:04.884Z,95860.46
2023-05-24T02:06:32.862Z,95857.42
2023-05-24T02:09:00.807Z,95856.56
2023-05-24T02:11:28.838Z,95860.53
2023-05-24T02:13:56.792Z,95859.55
2023-05-24T02:16:26.721Z,95857.52
2023-05-24T02:18:54.707Z,95857.88
2023-05-24T02:21:23.602Z,95859.39
2023-05-24T02:23:51.521Z,95856.69
2023-05-24T02:26:19.720Z,95854.04
2023-05-24T02:28:48.420Z,95853.11
2023-05-24T02:31:16.733Z,95860.16
2023-05-24T02:33:44.794Z,95857.00
2023-05-24T02:36:13.425Z,95860.94
2023-05-24T02:38:41.436Z,95862.43
2023-05-24T02:41:09.395Z,95861.88
2023-05-24T02:43:37.395Z,95859.97
2023-05-24T02:46:05.545Z,95859.39
2023-05-24T02:48:33.709Z,95857.88
2023-05-24T02:51:03.397Z,95859.34
2023-05-24T02:53:31.644Z,95859.45
2023-05-24T02:56:00.193Z,95861.20
2023-05-24T02:58:31.518Z,95865.06
2023-05-24T03:00:59.638Z,95866.30
2023-05-24T03:03:28.135Z,95867.48
2023-05-24T03:05:56.116Z,95863.71
2023-05-24T03:08:24.158Z,95863.08
2023-05-24T03:10:52.124Z,95866.23
2023-05-24T03:13:20.108Z,95863.02
2023-05-24T03:15:49.133Z,95862.67
2023-05-24T03:18:17.129Z,95863.19
2023-05-24T03:20:46.503Z,95865.54
2023-05-24T03:23:15.209Z,95865.57
2023-05-24T03:25:44.033Z,95872.24
2023-05-24T03:28:14.744Z,95875.63
2023-05-24T03:30:44.813Z,95876.16
2023-05-24T03:33:13.348Z,95875.80
2023-05-24T03:35:41.310Z,95878.32
2023-05-24T03:38:10.598Z,95878.77
2023-05-24T03:40:39.878Z,95882.30
2023-05-24T03:43:13.790Z,95885.01
2023-05-24T03:45:48.657Z,95887.89
2023-05-24T03:48:17.084Z,95888.61
2023-05-24T03:50:45.220Z,95889.85
2023-05-24T03:53:13.408Z,95893.02
2023-05-24T03:55:41.378Z,95893.98
2023-05-24T03:58:09.412Z,95901.09
2023-05-24T04:00:37.449Z,95902.35
2023-05-24T04:03:06.877Z,95904.77
2023-05-24T04:05:35.466Z,95909.27
2023-05-24T04:08:03.729Z,95914.19
2023-05-24T04:10:31.718Z,95923.08
2023-05-24T04:13:00.865Z,95918.33
2023-05-24T04:15:28.879Z,95925.16
2023-05-24T04:17:57.156Z,95928.63
2023-05-24T04:20:25.918Z,95929.80
2023-05-24T04:22:54.473Z,95935.31
2023-05-24T04:25:23.272Z,95938.35
2023-05-24T04:27:51.299Z,95939.92
2023-05-24T04:30:19.652Z,95945.89
2023-05-24T04:32:48.733Z,95948.20
2023-05-24T04:35:17.251Z,95952.71
2023-05-24T04:37:46.702Z,95953.41
2023-05-24T04:40:16.445Z,95959.30
2023-05-24T04:42:44.407Z,95956.16
2023-05-24T04:45:12.409Z,95961.14
2023-05-24T04:47:41.499Z,95963.25
2023-05-24T04:50:10.065Z,95964.65
2023-05-24T04:52:38.324Z,95967.98
2023-05-24T04:55:06.764Z,95965.98
2023-05-24T04:57:34.839Z,95966.95
2023-05-24T05:00:02.913Z,95971.20
2023-05-24T05:02:31.344Z,95968.30
2023-05-24T05:05:00.613Z,95973.38
2023-05-24T05:07:28.602Z,95975.77
2023-05-24T05:09:57.023Z,95974.95
2023-05-24T05:12:25.097Z,95975.18
2023-05-24T05:14:53.380Z,95979.11
2023-05-24T05:17:21.817Z,95979.25
2023-05-24T05:19:49.785Z,95980.70
2023-05-24T05:22:17.860Z,95986.35
2023-05-24T05:24:45.834Z,95986.36
2023-05-24T05:27:13.844Z,95989.51
2023-05-24T05:29:41.814Z,95987.75
2023-05-24T05:32:10.031Z,95992.14
2023-05-24T05:34:38.042Z,95990.59
2023-05-24T05:37:06.077Z,95992.41
2023-05-24T05:39:34.060Z,95993.33
2023-05-24T05:42:02.517Z,95999.02
2023-05-24T05:44:31.127Z,96001.11
2023-05-24T05:46:59.705Z,96003.94
2023-05-24T05:49:27.679Z,96005.12
2023-05-24T05:51:55.766Z,96011.92
2023-05-24T05:54:23.994Z,96016.13
2023-05-24T05:56:52.393Z,96019.09
2023-05-24T05:59:20.351Z,96017.45
2023-05-24T06:01:49.310Z,96023.04
2023-05-24T06:04:18.166Z,96025.33
2023-05-24T06:06:49.661Z,96026.68
2023-05-24T06:09:17.966Z,96025.98
2023-05-24T06:11:46.001Z,96032.75
2023-05-24T06:14:18.494Z,96037.09
2023-05-24T06:16:48.173Z,96039.98
2023-05-24T06:19:17.087Z,96039.32
2023-05-24T06:21:48.513Z,96037.92
2023-05-24T06:24:21.356Z,96039.15
2023-05-24T06:26:52.415Z,96044.23
2023-05-24T06:29:22.113Z,96046.52
2023-05-24T06:31:50.844Z,96047.23
2023-05-24T06:34:21.663Z,96055.33
2023-05-24T06:36:51.145Z,96059.15
2023-05-24T06:39:19.590Z,96056.70
2023-05-24T06:41:47.700Z,96061.15
2023-05-24T06:44:16.519Z,96066.32
2023-05-24T06:46:44.537Z,96070.86
2023-05-24T06:49:12.894Z,96076.98
2023-05-24T06:51:40.973Z,96076.02
2023-05-24T06:54:09.073Z,96079.10
2023-05-24T06:56:37.081Z,96080.48
2023-05-24T06:59:05.153Z,96081.59
2023-05-24T07:01:33.847Z,96086.48
2023-05-24T07:04:01.851Z,96089.33
2023-05-24T07:06:29.818Z,96088.29
2023-05-24T07:08:57.715Z,96089.02
2023-05-24T07:11:25.652Z,96094.95
2023-05-24T07:13:53.606Z,96100.11
2023-05-24T07:16:21.960Z,96104.60
2023-05-24T07:18:50.342Z,96108.20
2023-05-24T07:21:18.327Z,96106.17
2023-05-24T07:23:46.607Z,96107.16
2023-05-24T07:26:14.540Z,96106.98
2023-05-24T07:28:42.424Z,96113.34
2023-05-24T07:31:10.601Z,96121.67
2023-05-24T07:33:38.931Z,96125.77
2023-05-24T07:36:07.366Z,96129.17
2023-05-24T07:38:36.277Z,96130.14
2023-05-24T07:41:04.856Z,96136.17
2023-05-24T07:43:33.238Z,96136.13
2023-05-24T07:46:01.265Z,96136.53
2023-05-24T07:48:29.292Z,96143.26
2023-05-24T07:50:57.382Z,96147.13
2023-05-24T07:53:25.463Z,96149.56
2023-05-24T07:55:53.386Z,96153.81
2023-05-24T07:58:21.393Z,96162.08
2023-05-24T08:00:49.332Z,96160.02
2023-05-24T08:03:18.114Z,96164.42
2023-05-24T08:05:46.388Z,96162.73
2023-05-24T08:08:14.790Z,96168.20
2023-05-24T08:10:45.575Z,96169.79
2023-05-24T08:13:13.694Z,96171.73
2023-05-24T08:15:42.375Z,96176.87
2023-05-24T08:18:10.822Z,96179.08
2023-05-24T08:20:39.038Z,96178.05
2023-05-24T08:23:07.041Z,96182.67
2023-05-24T08:34:33.721Z,96198.33
2023-05-24T08:37:02.038Z,96198.48
2023-05-24T08:39:30.134Z,96203.45
2023-05-24T08:42:09.177Z,96209.25
2023-05-24T08:44:47.353Z,96210.09
2023-05-24T08:47:15.855Z,96210.95
2023-05-24T08:49:44.657Z,96216.23
2023-05-24T08:52:13.082Z,96216.52
2023-05-24T08:54:41.823Z,96221.83
2023-05-24T08:57:12.237Z,96227.27
2023-05-24T08:59:42.101Z,96232.86
2023-05-24T09:02:14.588Z,96236.42
2023-05-24T09:04:44.466Z,96240.16
2023-05-24T09:07:14.881Z,96244.06
2023-05-24T09:09:47.012Z,96243.34
2023-05-24T09:12:32.526Z,96245.79
2023-05-24T09:15:07.244Z,96250.08
2023-05-24T09:17:37.016Z,96248.73
2023-05-24T09:20:11.248Z,96249.27
2023-05-24T09:22:42.521Z,96253.36
2023-05-24T09:25:14.285Z,96255.54
2023-05-24T09:27:45.612Z,96257.98
2023-05-24T09:30:15.737Z,96256.38
2023-05-24T09:32:56.327Z,96260.17
2023-05-24T09:35:27.105Z,96262.81
2023-05-24T09:38:00.160Z,96263.82
2023-05-24T09:40:30.116Z,96269.48
2023-05-24T09:43:09.662Z,96266.83
2023-05-24T09:45:47.439Z,96269.98
2023-05-24T09:48:18.307Z,96270.64
2023-05-24T09:51:09.525Z,96269.84
2023-05-24T09:53:37.808Z,96273.10
2023-05-24T09:56:08.558Z,96274.84
2023-05-24T09:58:36.902Z,96278.01
2023-05-24T10:01:10.976Z,96275.22
2023-05-24T10:03:39.621Z,96273.29
2023-05-24T10:06:11.615Z,96268.52
2023-05-24T10:08:40.267Z,96275.43
2023-05-24T10:11:10.934Z,96276.13
2023-05-24T10:13:42.496Z,96278.69
2023-05-24T10:16:20.915Z,96276.93
2023-05-24T10:18:50.879Z,96281.95
2023-05-24T10:21:22.323Z,96287.14
2023-05-24T10:23:58.179Z,96288.25
2023-05-24T10:26:29.614Z,96290.78
2023-05-24T10:29:06.787Z,96293.86
2023-05-24T10:31:39.072Z,96299.27
2023-05-24T10:34:09.424Z,96302.70
2023-05-24T10:36:40.624Z,96308.39
2023-05-24T10:50:22.053Z,96314.98
2023-05-24T10:52:50.136Z,96317.52
2023-05-24T10:55:21.268Z,96311.09
2023-05-24T10:57:49.318Z,96311.48
2023-05-24T11:00:47.905Z,96312.41
2023-05-24T11:03:10.529Z,96314.80
2023-05-24T11:05:50.702Z,96316.78
2023-05-24T11:08:33.563Z,96319.17
2023-05-24T11:13:47.409Z,96322.41
2023-05-24T11:16:45.590Z,96322.95
2023-05-24T11:19:24.418Z,96328.18
2023-05-24T11:21:59.167Z,96333.05
2023-05-24T11:24:29.137Z,96333.41
2023-05-24T11:26:58.105Z,96336.36
2023-05-24T11:29:26.422Z,96341.90
2023-05-24T11:31:58.170Z,96342.64
2023-05-24T11:34:27.561Z,96342.73
2023-05-24T11:36:56.473Z,96341.58
2023-05-24T11:39:25.882Z,96345.55
2023-05-24T11:41:54.383Z,96345.84
2023-05-24T11:44:22.740Z,96352.23
2023-05-24T11:46:57.746Z,96346.92
2023-05-24T11:49:26.840Z,96352.73
2023-05-24T11:51:57.182Z,96347.83
2023-05-24T11:54:27.504Z,96348.57
2023-05-24T11:56:55.998Z,96351.93
2023-05-24T11:59:26.130Z,96349.83
2023-05-24T12:02:00.350Z,96347.50
2023-05-24T12:04:30.528Z,96345.09
2023-05-24T12:06:59.370Z,96344.84
2023-05-24T12:09:28.791Z,96345.39
2023-05-24T12:11:58.714Z,96347.58
2023-05-24T12:14:33.396Z,96345.27
2023-05-24T12:17:02.164Z,96342.94
2023-05-24T12:19:35.177Z,96345.96
2023-05-24T12:28:57.150Z,96356.83
2023-05-24T12:31:26.956Z,96356.07
2023-05-24T12:33:55.159Z,96353.27
2023-05-24T12:36:23.701Z,96354.46
2023-05-24T12:38:51.744Z,96358.34
2023-05-24T12:41:20.675Z,96353.39
2023-05-24T12:43:52.134Z,96347.95
2023-05-24T12:46:20.093Z,96352.39
2023-05-24T12:48:48.155Z,96352.36
2023-05-24T12:51:16.732Z,96348.29
2023-05-24T12:53:45.061Z,96347.27
2023-05-24T12:56:13.137Z,96347.91
2023-05-24T12:58:41.587Z,96349.14
2023-05-24T13:01:09.803Z,96352.71
2023-05-24T13:03:39.579Z,96352.40
2023-05-24T13:06:08.769Z,96349.35
2023-05-24T13:08:40.052Z,96352.91
2023-05-24T13:11:08.982Z,96350.07
2023-05-24T13:13:38.351Z,96351.53
2023-05-24T13:16:08.875Z,96355.35
2023-05-24T13:18:37.595Z,96352.34
2023-05-24T13:21:06.456Z,96353.84
2023-05-24T13:23:37.867Z,96352.71
2023-05-24T13:26:09.365Z,96353.70
2023-05-24T13:28:39.115Z,96354.22
2023-05-24T13:31:09.434Z,96351.95
2023-05-24T13:33:38.025Z,96350.84
2023-05-24T13:36:07.260Z,96357.38
2023-05-24T13:38:35.626Z,96353.85
2023-05-24T13:41:03.878Z,96355.20
2023-05-24T13:43:31.981Z,96357.54
2023-05-24T13:46:01.232Z,96355.52
2023-05-24T13:48:29.484Z,96357.24
2023-05-24T13:50:57.795Z,96362.55
2023-05-24T13:53:27.825Z,96360.96
2023-05-24T13:55:56.672Z,96362.07
2023-05-24T13:58:24.722Z,96361.29
2023-05-24T14:00:52.862Z,96360.95
2023-05-24T14:03:21.011Z,96365.11
2023-05-24T14:05:49.042Z,96359.70
2023-05-24T14:08:17.792Z,96355.74
2023-05-24T14:10:47.194Z,96354.02
2023-05-24T14:13:45.352Z,96355.45
2023-05-24T14:16:05.429Z,96354.59
2023-05-24T14:18:35.430Z,96354.07
2023-05-24T14:21:03.646Z,96356.41
2023-05-24T14:23:33.030Z,96350.16
2023-05-24T14:26:02.212Z,96351.46
2023-05-24T14:28:30.236Z,96350.85
2023-05-24T14:31:02.173Z,96352.45
2023-05-24T14:33:30.297Z,96352.05
2023-05-24T14:35:58.435Z,96351.58
2023-05-24T14:38:26.568Z,96354.70
2023-05-24T14:40:57.104Z,96352.66
2023-05-24T14:43:31.467Z,96351.97
2023-05-24T14:46:00.382Z,96348.11
2023-05-24T14:48:28.425Z,96351.29
2023-05-24T14:50:56.644Z,96354.77
2023-05-24T14:53:24.896Z,96354.19
2023-05-24T14:55:56.097Z,96358.00
2023-05-24T15:02:49.367Z,96359.95
2023-05-24T15:05:29.459Z,96361.77
2023-05-24T15:07:57.436Z,96365.30
2023-05-24T15:10:25.752Z,96370.32
2023-05-24T15:12:54.075Z,96370.45
2023-05-24T15:15:22.622Z,96368.93
2023-05-24T15:17:50.782Z,96371.08
2023-05-24T15:20:19.683Z,96374.34
2023-05-24T15:22:47.902Z,96377.81
2023-05-24T15:25:16.096Z,96380.54
2023-05-24T15:27:46.634Z,96378.34
2023-05-24T15:30:26.649Z,96380.69
2023-05-24T15:32:54.664Z,96379.74
2023-05-24T15:35:23.038Z,96381.16
2023-05-24T15:37:51.530Z,96379.17
2023-05-24T15:40:19.538Z,96376.04
2023-05-24T15:42:48.271Z,96374.14
2023-05-24T15:45:16.497Z,96372.85
2023-05-24T15:47:44.721Z,96375.05
2023-05-24T15:50:13.087Z,96380.22
2023-05-24T15:52:41.442Z,96375.06
2023-05-24T15:55:09.866Z,96376.40
2023-05-24T15:57:38.104Z,96372.99
2023-05-24T16:00:06.871Z,96370.90
2023-05-24T16:02:40.186Z,96370.77
2023-05-24T16:05:09.165Z,96370.54
2023-05-24T16:07:37.441Z,96376.26
2023-05-24T16:10:05.887Z,96381.46
2023-05-24T16:12:34.113Z,96384.20
2023-05-24T16:15:02.205Z,96390.99
2023-05-24T16:17:30.332Z,96396.04
2023-05-24T16:19:59.415Z,96400.88
2023-05-24T16:22:27.666Z,96404.98
2023-05-24T16:24:55.890Z,96410.34
2023-05-24T16:27:24.168Z,96415.41
2023-05-24T16:29:52.295Z,96414.41
2023-05-24T16:32:20.958Z,96416.59
2023-05-24T16:34:56.579Z,96418.92
2023-05-24T16:37:25.456Z,96421.52
2023-05-24T16:39:53.645Z,96425.95
2023-05-24T16:42:21.900Z,96430.58
2023-05-24T16:44:49.917Z,96433.43
2023-05-24T16:47:18.295Z,96436.64
2023-05-24T16:49:46.402Z,96440.23
2023-05-24T16:52:14.742Z,96438.91
2023-05-24T16:54:42.800Z,96443.40
2023-05-24T16:57:10.911Z,96445.77
2023-05-24T16:59:39.068Z,96453.18
2023-05-24T17:02:07.064Z,96452.39
2023-05-24T17:04:35.324Z,96456.87
2023-05-24T17:07:04.266Z,96460.20
2023-05-24T17:09:32.562Z,96459.71
2023-05-24T17:12:00.651Z,96462.36
2023-05-24T17:14:28.881Z,96463.04
2023-05-24T17:16:57.205Z,96469.91
2023-05-24T17:19:26.387Z,96467.41
2023-05-24T17:21:57.888Z,96470.09
2023-05-24T17:24:27.868Z,96472.73
2023-05-24T17:26:59.440Z,96474.45
2023-05-24T17:29:30.136Z,96478.95
2023-05-24T17:31:58.964Z,96479.86
2023-05-24T17:34:27.189Z,96477.79
2023-05-24T17:36:55.587Z,96477.57
2023-05-24T17:39:23.961Z,96473.94
2023-05-24T17:41:52.256Z,96477.42
2023-05-24T17:44:20.551Z,96480.60
2023-05-24T17:46:49.174Z,96482.57
2023-05-24T17:49:17.509Z,96484.70
2023-05-24T17:51:45.849Z,96489.39
2023-05-24T17:54:14.248Z,96492.42
2023-05-24T17:56:42.253Z,96491.95
2023-05-24T17:59:10.305Z,96495.23
2023-05-24T18:01:39.075Z,96495.10
2023-05-24T18:04:08.685Z,96496.19
2023-05-24T18:06:38.666Z,96494.89
2023-05-24T18:09:11.354Z,96497.55
2023-05-24T18:11:39.795Z,96495.59
2023-05-24T18:14:07.777Z,96495.98
2023-05-24T18:16:37.033Z,96500.38
2023-05-24T18:19:05.896Z,96506.88
2023-05-24T18:21:34.817Z,96512.92
2023-05-24T18:24:03.291Z,96514.68
2023-05-24T18:26:31.238Z,96510.67
2023-05-24T18:28:59.560Z,96516.05
2023-05-24T18:31:28.530Z,96525.73
2023-05-24T18:33:58.931Z,96528.22
2023-05-24T18:36:33.131Z,96531.76
2023-05-24T18:39:01.444Z,96535.93
2023-05-24T18:41:29.739Z,96536.75
2023-05-24T18:43:58.205Z,96541.91
2023-05-24T18:46:27.888Z,96546.77
2023-05-24T18:48:58.621Z,96544.34
2023-05-24T18:51:27.011Z,96551.11
2023-05-24T18:53:55.086Z,96547.16
2023-05-24T18:56:23.339Z,96556.37
2023-05-24T18:58:52.169Z,96565.29
2023-05-24T19:01:20.275Z,96570.85
2023-05-24T19:03:48.315Z,96570.81
2023-05-24T19:06:16.749Z,96573.37
2023-05-24T19:08:44.775Z,96571.83
2023-05-24T19:11:13.753Z,96569.41
2023-05-24T19:13:43.675Z,96571.84
2023-05-24T19:16:17.540Z,96572.96
2023-05-24T19:18:46.659Z,96572.45
2023-05-24T19:21:24.259Z,96573.73
2023-05-24T19:23:52.522Z,96573.45
2023-05-24T19:26:20.944Z,96579.35
2023-05-24T19:28:54.198Z,96585.06
2023-05-24T19:31:24.420Z,96589.70
2023-05-24T19:34:00.534Z,96587.23
2023-05-24T19:36:33.161Z,96590.84
2023-05-24T19:39:01.588Z,96595.68
2023-05-24T19:41:30.935Z,96596.23
2023-05-24T19:44:00.244Z,96599.23
2023-05-24T19:46:29.562Z,96598.03
2023-05-24T19:48:58.408Z,96596.17
2023-05-24T19:51:26.396Z,96594.64
2023-05-24T19:53:54.947Z,96592.60
2023-05-24T19:56:24.132Z,96593.06
2023-05-24T19:58:55.530Z,96591.33
2023-05-24T20:01:26.740Z,96590.92
2023-05-24T20:03:55.471Z,96587.17
2023-05-24T20:06:23.612Z,96583.69
2023-05-24T20:08:52.866Z,96576.29
2023-05-24T20:11:21.061Z,96572.02
2023-05-24T20:13:49.417Z,96570.30
2023-05-24T20:16:19.447Z,96568.40
2023-05-24T20:18:47.739Z,96571.86
2023-05-24T20:21:17.981Z,96571.02
2023-05-24T20:23:46.294Z,96573.69
2023-05-24T20:26:14.658Z,96572.32
2023-05-24T20:28:43.246Z,96573.34
2023-05-24T20:31:11.590Z,96572.00
2023-05-24T20:33:43.374Z,96569.83
2023-05-24T20:36:11.838Z,96566.80
2023-05-24T20:38:39.954Z,96564.36
2023-05-24T20:41:10.760Z,96562.16
2023-05-24T20:43:39.013Z,96561.95
2023-05-24T20:46:07.191Z,96566.69
2023-05-24T20:48:36.178Z,96571.25
2023-05-24T20:51:04.997Z,96568.70
2023-05-24T20:53:32.943Z,96568.95
2023-05-24T20:56:02.026Z,96570.50
2023-05-24T20:58:31.316Z,96570.29
2023-05-24T21:00:59.418Z,96568.19
2023-05-24T21:03:27.483Z,96566.77
2023-05-24T21:05:55.780Z,96563.16
2023-05-24T21:08:24.176Z,96567.64
2023-05-24T21:10:55.554Z,96574.75
2023-05-24T21:13:25.603Z,96571.09
2023-05-24T21:15:54.736Z,96563.89
2023-05-24T21:18:25.022Z,96567.79
2023-05-24T21:20:52.951Z,96568.85
2023-05-24T21:23:20.935Z,96571.61
2023-05-24T21:25:48.895Z,96574.44
2023-05-24T21:28:16.969Z,96574.34
2023-05-24T21:30:44.903Z,96581.46
2023-05-24T21:33:12.899Z,96584.88
2023-05-24T21:35:40.932Z,96588.21
2023-05-24T21:38:09.123Z,96590.81
2023-05-24T21:40:37.673Z,96588.52
2023-05-24T21:43:05.885Z,96593.95
2023-05-24T21:45:33.883Z,96589.51
2023-05-24T21:48:01.875Z,96587.02
2023-05-24T21:50:29.805Z,96587.43
2023-05-24T21:52:57.728Z,96594.98
2023-05-24T21:55:25.759Z,96597.64
2023-05-24T21:57:53.686Z,96601.02
2023-05-24T22:00:21.889Z,96597.89
2023-05-24T22:02:49.907Z,96599.66
2023-05-24T22:05:18.771Z,96601.40
2023-05-24T22:07:46.723Z,96608.73
2023-05-24T22:10:17.902Z,96613.98
2023-05-24T22:12:45.974Z,96613.74
2023-05-24T22:15:14.828Z,96614.84
2023-05-24T22:17:46.783Z,96612.95
2023-05-24T22:20:17.313Z,96607.61
2023-05-24T22:22:48.964Z,96604.36
2023-05-24T22:25:21.032Z,96612.73
2023-05-24T22:27:57.497Z,96608.20
2023-05-24T22:30:30.571Z,96611.63
2023-05-24T22:33:18.931Z,96615.05
2023-05-24T22:35:46.940Z,96621.85
2023-05-24T22:38:15.115Z,96620.38
2023-05-24T22:40:49.229Z,96620.90
2023-05-24T22:43:20.176Z,96617.67
2023-05-24T22:45:49.595Z,96618.63
2023-05-24T22:48:18.604Z,96629.36
2023-05-24T22:50:46.707Z,96630.77
2023-05-24T22:53:14.616Z,96629.25
2023-05-24T22:55:43.142Z,96633.40
2023-05-24T22:58:11.404Z,96633.36
2023-05-24T23:00:39.303Z,96632.31
2023-05-24T23:03:07.758Z,96635.56
2023-05-24T23:05:35.877Z,96636.35
2023-05-24T23:08:05.117Z,96640.83
2023-05-24T23:10:33.097Z,96643.16
2023-05-24T23:13:01.059Z,96643.02
2023-05-24T23:15:29.077Z,96644.35
2023-05-24T23:17:57.172Z,96639.76
2023-05-24T23:20:26.165Z,96642.33
2023-05-24T23:22:54.546Z,96647.09
2023-05-24T23:25:22.480Z,96648.34
2023-05-24T23:27:50.488Z,96649.95
2023-05-24T23:30:18.401Z,96651.47
2023-05-24T23:32:46.426Z,96655.54
2023-05-24T23:35:14.494Z,96658.30
2023-05-24T23:37:42.411Z,96651.68
2023-05-24T23:40:10.948Z,96645.48
2023-05-24T23:42:39.004Z,96647.54
2023-05-24T23:45:07.248Z,96651.36
2023-05-24T23:47:35.299Z,96641.52
2023-05-24T23:50:03.624Z,96640.73
2023-05-24T23:52:31.594Z,96641.23
2023-05-24T23:54:59.506Z,96646.59
2023-05-24T23:57:27.409Z,96643.80
2023-05-24T23:59:58.383Z,96642.58
